sensor_id;sensor_type;location;lat;lon;timestamp;pressure;altitude;pressure_sealevel;temperature;humidity
24013;BME280;12220;50.194;18.948;2023-05-14T00:01:14;102312.30;;;9.93;57.08
24013;BME280;12220;50.194;18.948;2023-05-14T00:03:23;102320.50;;;9.93;57.08
24013;BME280;12220;50.194;18.948;2023-05-14T00:05:42;102315.16;;;9.90;57.09
24013;BME280;12220;50.194;18.948;2023-05-14T00:07:47;102316.30;;;9.84;57.12
24013;BME280;12220;50.194;18.948;2023-05-14T00:09:48;102315.70;;;9.77;57.23
24013;BME280;12220;50.194;18.948;2023-05-14T00:11:50;102310.35;;;9.74;57.40
24013;BME280;12220;50.194;18.948;2023-05-14T00:13:57;102313.09;;;9.74;57.44
24013;BME280;12220;50.194;18.948;2023-05-14T00:16:02;102304.88;;;9.74;57.51
24013;BME280;12220;50.194;18.948;2023-05-14T00:18:06;102312.18;;;9.74;57.55
24013;BME280;12220;50.194;18.948;2023-05-14T00:20:11;102305.82;;;9.73;57.73
24013;BME280;12220;50.194;18.948;2023-05-14T00:22:13;102311.37;;;9.72;57.57
24013;BME280;12220;50.194;18.948;2023-05-14T00:24:14;102307.85;;;9.68;57.63
24013;BME280;12220;50.194;18.948;2023-05-14T00:26:15;102303.48;;;9.64;57.69
24013;BME280;12220;50.194;18.948;2023-05-14T00:28:17;102298.02;;;9.64;57.78
24013;BME280;12220;50.194;18.948;2023-05-14T00:30:27;102308.95;;;9.64;57.78
24013;BME280;12220;50.194;18.948;2023-05-14T00:32:29;102308.11;;;9.62;57.87
24013;BME280;12220;50.194;18.948;2023-05-14T00:34:30;102300.88;;;9.61;57.96
24013;BME280;12220;50.194;18.948;2023-05-14T00:36:32;102297.16;;;9.62;58.01
24013;BME280;12220;50.194;18.948;2023-05-14T00:38:42;102298.02;;;9.64;58.05
24013;BME280;12220;50.194;18.948;2023-05-14T00:40:47;102297.95;;;9.66;58.11
24013;BME280;12220;50.194;18.948;2023-05-14T00:42:52;102298.76;;;9.68;58.05
24013;BME280;12220;50.194;18.948;2023-05-14T00:44:54;102298.70;;;9.69;58.04
24013;BME280;12220;50.194;18.948;2023-05-14T00:47:03;102304.24;;;9.68;57.92
24013;BME280;12220;50.194;18.948;2023-05-14T00:49:27;102300.81;;;9.63;57.85
24013;BME280;12220;50.194;18.948;2023-05-14T00:51:43;102303.03;;;9.53;57.89
24013;BME280;12220;50.194;18.948;2023-05-14T00:53:49;102305.30;;;9.41;57.97
24013;BME280;12220;50.194;18.948;2023-05-14T00:55:53;102316.55;;;9.34;58.14
24013;BME280;12220;50.194;18.948;2023-05-14T00:57:56;102320.48;;;9.27;58.31
24013;BME280;12220;50.194;18.948;2023-05-14T01:00:00;102315.14;;;9.23;58.41
24013;BME280;12220;50.194;18.948;2023-05-14T01:02:01;102318.75;;;9.24;58.55
24013;BME280;12220;50.194;18.948;2023-05-14T01:04:04;102320.48;;;9.27;58.67
24013;BME280;12220;50.194;18.948;2023-05-14T01:06:16;102320.48;;;9.27;58.70
24013;BME280;12220;50.194;18.948;2023-05-14T01:08:26;102324.95;;;9.29;58.75
24013;BME280;12220;50.194;18.948;2023-05-14T01:13:07;102321.23;;;9.30;58.57
24013;BME280;12220;50.194;18.948;2023-05-14T01:15:22;102320.42;;;9.28;58.56
24013;BME280;12220;50.194;18.948;2023-05-14T01:17:28;102317.69;;;9.28;58.68
24013;BME280;12220;50.194;18.948;2023-05-14T01:19:40;102315.89;;;9.27;58.74
24013;BME280;12220;50.194;18.948;2023-05-14T01:21:42;102314.08;;;9.28;58.74
24013;BME280;12220;50.194;18.948;2023-05-14T01:23:46;102325.04;;;9.26;58.68
24013;BME280;12220;50.194;18.948;2023-05-14T01:25:59;102323.52;;;9.19;58.64
24013;BME280;12220;50.194;18.948;2023-05-14T01:28:10;102320.13;;;9.12;58.72
24013;BME280;12220;50.194;18.948;2023-05-14T01:32:25;102324.80;;;9.08;59.00
24013;BME280;12220;50.194;18.948;2023-05-14T01:34:29;102319.31;;;9.10;59.08
24013;BME280;12220;50.194;18.948;2023-05-14T01:36:39;102313.84;;;9.10;59.03
24013;BME280;12220;50.194;18.948;2023-05-14T01:38:41;102314.72;;;9.11;59.03
24013;BME280;12220;50.194;18.948;2023-05-14T01:40:49;102313.79;;;9.12;58.95
24013;BME280;12220;50.194;18.948;2023-05-14T01:42:53;102316.59;;;9.08;58.92
24013;BME280;12220;50.194;18.948;2023-05-14T01:44:55;102315.85;;;9.05;58.91
24013;BME280;12220;50.194;18.948;2023-05-14T01:46:56;102314.17;;;9.01;59.01
24013;BME280;12220;50.194;18.948;2023-05-14T01:48:58;102306.16;;;8.96;59.11
24013;BME280;12220;50.194;18.948;2023-05-14T01:50:59;102304.43;;;8.94;59.21
24013;BME280;12220;50.194;18.948;2023-05-14T01:53:08;102300.81;;;8.93;59.28
24013;BME280;12220;50.194;18.948;2023-05-14T01:55:09;102302.61;;;8.94;59.40
24013;BME280;12220;50.194;18.948;2023-05-14T01:57:11;102301.63;;;8.95;59.43
24013;BME280;12220;50.194;18.948;2023-05-14T01:59:13;102297.03;;;8.97;59.40
24013;BME280;12220;50.194;18.948;2023-05-14T02:01:24;102300.57;;;8.99;59.28
24013;BME280;12220;50.194;18.948;2023-05-14T02:03:26;102300.57;;;8.99;59.21
24013;BME280;12220;50.194;18.948;2023-05-14T02:05:27;102292.50;;;8.96;59.18
24013;BME280;12220;50.194;18.948;2023-05-14T02:07:28;102293.50;;;8.94;59.23
24013;BME280;12220;50.194;18.948;2023-05-14T02:09:39;102290.90;;;8.90;59.16
24013;BME280;12220;50.194;18.948;2023-05-14T02:11:41;102292.93;;;8.85;59.15
24013;BME280;12220;50.194;18.948;2023-05-14T02:13:42;102296.84;;;8.78;59.19
24013;BME280;12220;50.194;18.948;2023-05-14T02:15:44;102294.26;;;8.73;59.32
24013;BME280;12220;50.194;18.948;2023-05-14T02:17:53;102300.80;;;8.69;59.40
24013;BME280;12220;50.194;18.948;2023-05-14T02:19:54;102310.88;;;8.67;59.49
24013;BME280;12220;50.194;18.948;2023-05-14T02:21:58;102306.27;;;8.69;59.55
24013;BME280;12220;50.194;18.948;2023-05-14T02:24:00;102292.55;;;8.71;59.62
24013;BME280;12220;50.194;18.948;2023-05-14T02:26:09;102298.02;;;8.71;59.53
24013;BME280;12220;50.194;18.948;2023-05-14T02:28:10;102291.58;;;8.72;59.52
24013;BME280;12220;50.194;18.948;2023-05-14T02:30:12;102300.63;;;8.74;59.61
24013;BME280;12220;50.194;18.948;2023-05-14T02:32:13;102294.16;;;8.77;59.66
24013;BME280;12220;50.194;18.948;2023-05-14T02:34:23;102297.71;;;8.79;59.57
24013;BME280;12220;50.194;18.948;2023-05-14T02:36:25;102286.91;;;8.76;59.50
24013;BME280;12220;50.194;18.948;2023-05-14T02:38:26;102294.31;;;8.72;59.51
24013;BME280;12220;50.194;18.948;2023-05-14T02:40:27;102290.77;;;8.70;59.62
24013;BME280;12220;50.194;18.948;2023-05-14T02:42:38;102285.36;;;8.68;59.62
24013;BME280;12220;50.194;18.948;2023-05-14T02:44:39;102284.36;;;8.71;59.72
24013;BME280;12220;50.194;18.948;2023-05-14T02:46:41;102276.16;;;8.71;59.69
24013;BME280;12220;50.194;18.948;2023-05-14T02:48:43;102285.24;;;8.71;59.65
24013;BME280;12220;50.194;18.948;2023-05-14T02:50:55;102271.58;;;8.71;59.58
24013;BME280;12220;50.194;18.948;2023-05-14T02:52:56;102276.16;;;8.71;59.50
24013;BME280;12220;50.194;18.948;2023-05-14T02:54:57;102279.02;;;8.68;59.45
24013;BME280;12220;50.194;18.948;2023-05-14T02:56:59;102279.22;;;8.62;59.52
24013;BME280;12220;50.194;18.948;2023-05-14T02:59:09;102288.59;;;8.54;59.69
24013;BME280;12220;50.194;18.948;2023-05-14T03:01:11;102269.59;;;8.51;59.75
24013;BME280;12220;50.194;18.948;2023-05-14T03:03:12;102273.32;;;8.49;59.87
24013;BME280;12220;50.194;18.948;2023-05-14T03:05:13;102268.89;;;8.46;59.97
24013;BME280;12220;50.194;18.948;2023-05-14T03:07:23;102267.04;;;8.47;60.03
24013;BME280;12220;50.194;18.948;2023-05-14T03:09:24;102265.25;;;8.46;60.19
24013;BME280;12220;50.194;18.948;2023-05-14T03:11:28;102263.38;;;8.48;60.34
24013;BME280;12220;50.194;18.948;2023-05-14T03:13:30;102258.73;;;8.50;60.37
24013;BME280;12220;50.194;18.948;2023-05-14T03:15:38;102256.00;;;8.50;60.24
24013;BME280;12220;50.194;18.948;2023-05-14T03:17:40;102250.66;;;8.47;60.32
24013;BME280;12220;50.194;18.948;2023-05-14T03:19:41;102256.18;;;8.45;60.40
24013;BME280;12220;50.194;18.948;2023-05-14T03:21:42;102266.22;;;8.45;60.46
24013;BME280;12220;50.194;18.948;2023-05-14T03:23:53;102163.77;;;7.84;60.40
24013;BME280;12220;50.194;18.948;2023-05-14T03:25:55;102265.45;;;8.40;60.51
24013;BME280;12220;50.194;18.948;2023-05-14T03:27:56;102261.90;;;8.37;60.61
24013;BME280;12220;50.194;18.948;2023-05-14T03:29:58;102251.91;;;8.36;60.70
24013;BME280;12220;50.194;18.948;2023-05-14T03:32:08;102257.38;;;8.36;60.71
24013;BME280;12220;50.194;18.948;2023-05-14T03:34:10;102258.25;;;8.37;60.77
24013;BME280;12220;50.194;18.948;2023-05-14T03:36:11;102260.05;;;8.38;60.81
24013;BME280;12220;50.194;18.948;2023-05-14T03:38:12;102246.40;;;8.38;60.83
24013;BME280;12220;50.194;18.948;2023-05-14T03:40:24;102251.86;;;8.38;60.83
24013;BME280;12220;50.194;18.948;2023-05-14T03:42:27;102253.59;;;8.41;60.92
24013;BME280;12220;50.194;18.948;2023-05-14T03:44:28;102258.99;;;8.42;60.96
24013;BME280;12220;50.194;18.948;2023-05-14T03:46:29;102252.59;;;8.43;60.96
24013;BME280;12220;50.194;18.948;2023-05-14T03:48:38;102256.20;;;8.44;60.87
24013;BME280;12220;50.194;18.948;2023-05-14T03:50:40;102245.28;;;8.44;60.95
24013;BME280;12220;50.194;18.948;2023-05-14T03:52:42;102246.20;;;8.44;61.08
24013;BME280;12220;50.194;18.948;2023-05-14T03:54:45;102247.05;;;8.46;61.19
24013;BME280;12220;50.194;18.948;2023-05-14T03:56:56;102246.86;;;8.51;61.20
24013;BME280;12220;50.194;18.948;2023-05-14T03:58:58;102247.69;;;8.53;61.21
24013;BME280;12220;50.194;18.948;2023-05-14T04:00:59;102244.84;;;8.56;61.22
24013;BME280;12220;50.194;18.948;2023-05-14T04:03:01;102245.70;;;8.58;61.18
24013;BME280;12220;50.194;18.948;2023-05-14T04:05:08;102254.70;;;8.60;61.09
24013;BME280;12220;50.194;18.948;2023-05-14T04:07:10;102248.37;;;8.60;61.09
24013;BME280;12220;50.194;18.948;2023-05-14T04:09:11;102245.70;;;8.58;61.21
24013;BME280;12220;50.194;18.948;2023-05-14T04:11:13;102252.03;;;8.59;61.13
24013;BME280;12220;50.194;18.948;2023-05-14T04:13:24;102251.21;;;8.57;61.10
24013;BME280;12220;50.194;18.948;2023-05-14T04:15:25;102250.30;;;8.56;61.15
24013;BME280;12220;50.194;18.948;2023-05-14T04:17:27;102245.81;;;8.55;61.27
24013;BME280;12220;50.194;18.948;2023-05-14T04:19:31;102247.69;;;8.53;61.36
24013;BME280;12220;50.194;18.948;2023-05-14T04:21:39;102246.80;;;8.52;61.41
24013;BME280;12220;50.194;18.948;2023-05-14T04:23:40;102244.96;;;8.53;61.54
24013;BME280;12220;50.194;18.948;2023-05-14T04:25:41;102254.00;;;8.55;61.65
24013;BME280;12220;50.194;18.948;2023-05-14T04:27:43;102252.95;;;8.59;61.65
24013;BME280;12220;50.194;18.948;2023-05-14T04:29:54;102248.30;;;8.61;61.60
24013;BME280;12220;50.194;18.948;2023-05-14T04:31:58;102248.19;;;8.64;61.66
24013;BME280;12220;50.194;18.948;2023-05-14T04:34:00;102239.87;;;8.67;61.75
24013;BME280;12220;50.194;18.948;2023-05-14T04:36:01;102240.66;;;8.71;61.84
24013;BME280;12220;50.194;18.948;2023-05-14T04:38:09;102240.53;;;8.74;61.89
24013;BME280;12220;50.194;18.948;2023-05-14T04:40:14;102242.21;;;8.78;61.94
24013;BME280;12220;50.194;18.948;2023-05-14T04:42:16;102246.64;;;8.81;62.00
24013;BME280;12220;50.194;18.948;2023-05-14T04:44:20;102250.23;;;8.83;62.10
24013;BME280;12220;50.194;18.948;2023-05-14T04:46:24;102241.02;;;8.85;62.16
24013;BME280;12220;50.194;18.948;2023-05-14T04:48:25;102239.11;;;8.87;62.32
24013;BME280;12220;50.194;18.948;2023-05-14T04:50:27;102241.78;;;8.89;62.47
24013;BME280;12220;50.194;18.948;2023-05-14T04:52:28;102274.44;;;8.92;62.68
24013;BME280;12220;50.194;18.948;2023-05-14T04:54:39;102236.06;;;8.95;62.94
24013;BME280;12220;50.194;18.948;2023-05-14T04:56:40;102239.58;;;8.99;63.34
24013;BME280;12220;50.194;18.948;2023-05-14T04:58:41;102241.24;;;9.03;63.59
24013;BME280;12220;50.194;18.948;2023-05-14T05:00:43;102237.41;;;9.07;64.02
24013;BME280;12220;50.194;18.948;2023-05-14T05:02:54;102241.74;;;9.13;64.11
24013;BME280;12220;50.194;18.948;2023-05-14T05:04:55;102237.95;;;9.17;64.20
24013;BME280;12220;50.194;18.948;2023-05-14T05:06:57;102233.07;;;9.25;64.28
24013;BME280;12220;50.194;18.948;2023-05-14T05:08:58;102228.16;;;9.33;64.38
24013;BME280;12220;50.194;18.948;2023-05-14T05:11:09;102232.35;;;9.42;64.37
24013;BME280;12220;50.194;18.948;2023-05-14T05:13:10;102227.53;;;9.49;64.44
24013;BME280;12220;50.194;18.948;2023-05-14T05:15:11;102230.78;;;9.58;64.61
24013;BME280;12220;50.194;18.948;2023-05-14T05:17:14;102232.16;;;9.69;64.70
24013;BME280;12220;50.194;18.948;2023-05-14T05:19:24;102229.94;;;9.79;64.72
24013;BME280;12220;50.194;18.948;2023-05-14T05:21:25;102228.66;;;9.87;64.73
24013;BME280;12220;50.194;18.948;2023-05-14T05:23:27;102239.19;;;9.97;64.75
24013;BME280;12220;50.194;18.948;2023-05-14T05:25:28;102233.30;;;10.06;65.02
24013;BME280;12220;50.194;18.948;2023-05-14T05:27:39;102230.09;;;10.17;64.90
24013;BME280;12220;50.194;18.948;2023-05-14T05:29:40;102223.40;;;10.24;64.86
24013;BME280;12220;50.194;18.948;2023-05-14T05:31:42;102221.13;;;10.34;64.71
24013;BME280;12220;50.194;18.948;2023-05-14T05:33:43;102220.74;;;10.43;64.64
24013;BME280;12220;50.194;18.948;2023-05-14T05:35:54;102224.90;;;10.52;64.54
24013;BME280;12220;50.194;18.948;2023-05-14T05:37:58;102225.41;;;10.60;64.41
24013;BME280;12220;50.194;18.948;2023-05-14T05:40:00;102226.90;;;10.67;64.33
24013;BME280;12220;50.194;18.948;2023-05-14T05:42:02;102226.64;;;10.73;64.25
24013;BME280;12220;50.194;18.948;2023-05-14T05:44:09;102230.88;;;10.80;64.11
24013;BME280;12220;50.194;18.948;2023-05-14T05:46:10;102227.83;;;10.87;63.99
24013;BME280;12220;50.194;18.948;2023-05-14T05:48:12;102230.28;;;10.93;63.90
24013;BME280;12220;50.194;18.948;2023-05-14T05:50:15;102230.95;;;10.98;63.86
24013;BME280;12220;50.194;18.948;2023-05-14T05:52:24;102226.05;;;11.05;63.76
24013;BME280;12220;50.194;18.948;2023-05-14T05:54:25;102228.56;;;11.09;63.68
24013;BME280;12220;50.194;18.948;2023-05-14T05:56:27;102238.19;;;11.18;63.59
24013;BME280;12220;50.194;18.948;2023-05-14T05:58:28;102238.71;;;11.26;63.59
24013;BME280;12220;50.194;18.948;2023-05-14T06:00:39;102234.86;;;11.30;63.42
24013;BME280;12220;50.194;18.948;2023-05-14T06:02:41;102230.92;;;11.36;63.38
24013;BME280;12220;50.194;18.948;2023-05-14T06:04:45;102225.13;;;11.42;63.64
24013;BME280;12220;50.194;18.948;2023-05-14T06:06:46;102226.60;;;11.49;63.53
24013;BME280;12220;50.194;18.948;2023-05-14T06:08:54;102217.89;;;11.59;63.31
24013;BME280;12220;50.194;18.948;2023-05-14T06:10:55;102209.30;;;11.66;63.27
24013;BME280;12220;50.194;18.948;2023-05-14T06:12:56;102212.67;;;11.72;63.15
24013;BME280;12220;50.194;18.948;2023-05-14T06:14:58;102207.76;;;11.78;63.13
24013;BME280;12220;50.194;18.948;2023-05-14T06:17:09;102199.29;;;11.83;63.21
24013;BME280;12220;50.194;18.948;2023-05-14T06:19:10;102204.28;;;11.92;63.24
24013;BME280;12220;50.194;18.948;2023-05-14T06:21:11;102201.19;;;12.00;63.37
24013;BME280;12220;50.194;18.948;2023-05-14T06:23:13;102201.56;;;12.10;63.11
24013;BME280;12220;50.194;18.948;2023-05-14T06:25:24;102193.82;;;12.18;62.90
24013;BME280;12220;50.194;18.948;2023-05-14T06:27:25;102189.77;;;12.25;62.73
24013;BME280;12220;50.194;18.948;2023-05-14T06:29:27;102194.84;;;12.33;62.53
24013;BME280;12220;50.194;18.948;2023-05-14T06:31:28;102195.41;;;12.40;62.38
24013;BME280;12220;50.194;18.948;2023-05-14T06:33:39;102190.35;;;12.48;62.36
24013;BME280;12220;50.194;18.948;2023-05-14T06:35:40;102185.42;;;12.54;62.25
24013;BME280;12220;50.194;18.948;2023-05-14T06:37:41;102185.89;;;12.63;62.21
24013;BME280;12220;50.194;18.948;2023-05-14T06:39:43;102183.58;;;12.71;61.98
24013;BME280;12220;50.194;18.948;2023-05-14T06:41:54;102197.70;;;12.81;61.87
24013;BME280;12220;50.194;18.948;2023-05-14T06:43:55;102192.76;;;12.87;61.64
24013;BME280;12220;50.194;18.948;2023-05-14T06:45:57;102201.43;;;12.96;61.30
24013;BME280;12220;50.194;18.948;2023-05-14T06:47:59;102200.02;;;13.04;61.14
24013;BME280;12220;50.194;18.948;2023-05-14T06:50:09;102195.76;;;13.15;61.14
24013;BME280;12220;50.194;18.948;2023-05-14T06:52:13;102197.00;;;13.25;61.06
24013;BME280;12220;50.194;18.948;2023-05-14T06:54:14;102196.42;;;13.36;60.80
24013;BME280;12220;50.194;18.948;2023-05-14T06:56:15;102191.18;;;13.47;60.66
24013;BME280;12220;50.194;18.948;2023-05-14T06:58:24;102176.77;;;13.58;60.38
24013;BME280;12220;50.194;18.948;2023-05-14T07:00:25;102187.12;;;13.69;60.11
24013;BME280;12220;50.194;18.948;2023-05-14T07:02:27;102181.07;;;13.78;59.99
24013;BME280;12220;50.194;18.948;2023-05-14T07:04:28;102179.62;;;13.87;59.62
24013;BME280;12220;50.194;18.948;2023-05-14T07:06:39;102190.16;;;13.94;59.28
24013;BME280;12220;50.194;18.948;2023-05-14T07:08:41;102186.92;;;14.02;59.09
24013;BME280;12220;50.194;18.948;2023-05-14T07:10:45;102186.38;;;14.11;58.98
24013;BME280;12220;50.194;18.948;2023-05-14T07:12:47;102186.60;;;14.23;58.82
24013;BME280;12220;50.194;18.948;2023-05-14T07:14:53;102192.20;;;14.36;58.58
24013;BME280;12220;50.194;18.948;2023-05-14T07:16:57;102187.97;;;14.44;58.28
24013;BME280;12220;50.194;18.948;2023-05-14T07:18:58;102188.28;;;14.54;57.56
24013;BME280;12220;50.194;18.948;2023-05-14T07:21:02;102195.92;;;14.65;57.66
24013;BME280;12220;50.194;18.948;2023-05-14T07:23:08;102198.94;;;14.75;57.49
24013;BME280;12220;50.194;18.948;2023-05-14T07:25:10;102197.25;;;14.87;57.53
24013;BME280;12220;50.194;18.948;2023-05-14T07:27:11;102203.87;;;14.98;57.42
24013;BME280;12220;50.194;18.948;2023-05-14T07:29:13;102202.27;;;15.09;57.14
24013;BME280;12220;50.194;18.948;2023-05-14T07:31:23;102204.42;;;15.18;56.68
24013;BME280;12220;50.194;18.948;2023-05-14T07:33:25;102205.68;;;15.27;56.32
24013;BME280;12220;50.194;18.948;2023-05-14T07:35:26;102203.40;;;15.33;55.79
24013;BME280;12220;50.194;18.948;2023-05-14T07:37:28;102203.75;;;15.42;55.71
24013;BME280;12220;50.194;18.948;2023-05-14T07:39:38;102207.66;;;15.52;55.76
24013;BME280;12220;50.194;18.948;2023-05-14T07:41:41;102194.23;;;15.60;55.38
24013;BME280;12220;50.194;18.948;2023-05-14T07:43:45;102194.60;;;15.68;55.21
24013;BME280;12220;50.194;18.948;2023-05-14T07:45:46;102175.41;;;15.80;55.18
24013;BME280;12220;50.194;18.948;2023-05-14T07:47:53;102177.34;;;15.92;55.03
24013;BME280;12220;50.194;18.948;2023-05-14T07:49:55;102177.59;;;16.02;54.73
24013;BME280;12220;50.194;18.948;2023-05-14T07:51:57;102171.17;;;16.14;54.58
24013;BME280;12220;50.194;18.948;2023-05-14T07:54:00;102175.04;;;16.25;54.32
24013;BME280;12220;50.194;18.948;2023-05-14T07:56:08;102162.34;;;16.35;54.05
24013;BME280;12220;50.194;18.948;2023-05-14T07:58:13;102170.85;;;16.45;53.71
24013;BME280;12220;50.194;18.948;2023-05-14T08:00:16;102169.19;;;16.55;53.46
24013;BME280;12220;50.194;18.948;2023-05-14T08:02:18;102166.64;;;16.65;53.34
24013;BME280;12220;50.194;18.948;2023-05-14T08:04:23;102155.01;;;16.72;52.96
24013;BME280;12220;50.194;18.948;2023-05-14T08:06:25;102149.48;;;16.72;52.36
24013;BME280;12220;50.194;18.948;2023-05-14T08:08:28;102145.61;;;16.75;52.54
24013;BME280;12220;50.194;18.948;2023-05-14T08:10:30;102138.85;;;16.79;52.34
24013;BME280;12220;50.194;18.948;2023-05-14T08:12:38;102147.56;;;16.86;52.24
24013;BME280;12220;50.194;18.948;2023-05-14T08:14:40;102135.30;;;16.90;52.12
24013;BME280;12220;50.194;18.948;2023-05-14T08:16:46;102130.84;;;17.00;52.26
24013;BME280;12220;50.194;18.948;2023-05-14T08:18:51;102130.92;;;17.12;52.15
24013;BME280;12220;50.194;18.948;2023-05-14T08:20:54;102131.86;;;17.23;51.80
24013;BME280;12220;50.194;18.948;2023-05-14T08:22:58;102123.75;;;17.33;51.58
24013;BME280;12220;50.194;18.948;2023-05-14T08:25:03;102120.25;;;17.42;51.33
24013;BME280;12220;50.194;18.948;2023-05-14T08:27:06;102116.79;;;17.52;51.20
24013;BME280;12220;50.194;18.948;2023-05-14T08:29:08;102116.30;;;17.58;50.82
24013;BME280;12220;50.194;18.948;2023-05-14T08:31:09;102108.25;;;17.66;50.90
24013;BME280;12220;50.194;18.948;2023-05-14T08:33:11;101409.73;;;13.47;50.57
24013;BME280;12220;50.194;18.948;2023-05-14T08:35:16;102112.59;;;17.82;49.94
24013;BME280;12220;50.194;18.948;2023-05-14T08:37:23;102103.16;;;17.84;49.92
24013;BME280;12220;50.194;18.948;2023-05-14T08:39:24;102097.16;;;17.90;50.10
24013;BME280;12220;50.194;18.948;2023-05-14T08:41:30;102107.50;;;18.00;49.93
24013;BME280;12220;50.194;18.948;2023-05-14T08:43:54;102107.65;;;18.09;49.62
24013;BME280;12220;50.194;18.948;2023-05-14T08:45:48;102104.13;;;18.19;49.24
24013;BME280;12220;50.194;18.948;2023-05-14T08:47:59;102098.71;;;18.28;49.25
24013;BME280;12220;50.194;18.948;2023-05-14T08:50:06;102092.31;;;18.39;49.36
24013;BME280;12220;50.194;18.948;2023-05-14T08:52:08;102100.38;;;18.54;49.15
24013;BME280;12220;50.194;18.948;2023-05-14T08:54:19;102095.58;;;18.67;49.02
24013;BME280;12220;50.194;18.948;2023-05-14T08:56:31;102093.53;;;18.80;48.48
24013;BME280;12220;50.194;18.948;2023-05-14T08:58:35;102090.36;;;18.85;47.58
24013;BME280;12220;50.194;18.948;2023-05-14T09:00:37;102083.86;;;18.86;47.81
24013;BME280;12220;50.194;18.948;2023-05-14T09:02:45;102086.23;;;18.91;47.78
24013;BME280;12220;50.194;18.948;2023-05-14T09:04:51;102080.02;;;18.98;47.81
24013;BME280;12220;50.194;18.948;2023-05-14T09:06:54;102072.67;;;19.09;47.57
24013;BME280;12220;50.194;18.948;2023-05-14T09:08:56;102069.39;;;19.15;47.37
24013;BME280;12220;50.194;18.948;2023-05-14T09:10:57;102068.99;;;19.20;47.20
24013;BME280;12220;50.194;18.948;2023-05-14T09:13:01;102071.37;;;19.24;47.08
24013;BME280;12220;50.194;18.948;2023-05-14T09:15:05;102072.73;;;19.30;46.88
24013;BME280;12220;50.194;18.948;2023-05-14T09:17:07;102066.78;;;19.34;46.96
24013;BME280;12220;50.194;18.948;2023-05-14T09:19:13;102068.60;;;19.45;46.98
24013;BME280;12220;50.194;18.948;2023-05-14T09:21:18;102067.55;;;19.58;46.99
24013;BME280;12220;50.194;18.948;2023-05-14T09:23:31;102063.82;;;19.68;46.88
24013;BME280;12220;50.194;18.948;2023-05-14T09:25:41;102071.25;;;19.79;46.66
24013;BME280;12220;50.194;18.948;2023-05-14T09:27:49;102068.66;;;19.88;46.42
24013;BME280;12220;50.194;18.948;2023-05-14T09:29:50;102060.38;;;19.97;46.00
24013;BME280;12220;50.194;18.948;2023-05-14T09:31:53;102066.88;;;20.08;45.63
24013;BME280;12220;50.194;18.948;2023-05-14T09:33:57;102064.16;;;20.17;45.60
24013;BME280;12220;50.194;18.948;2023-05-14T09:36:01;101817.80;;;18.81;45.59
24013;BME280;12220;50.194;18.948;2023-05-14T09:38:17;102057.95;;;20.35;44.89
24013;BME280;12220;50.194;18.948;2023-05-14T09:40:34;102054.93;;;20.48;45.18
24013;BME280;12220;50.194;18.948;2023-05-14T09:42:44;102061.55;;;20.57;44.43
24013;BME280;12220;50.194;18.948;2023-05-14T09:44:46;102061.99;;;20.62;44.42
24013;BME280;12220;50.194;18.948;2023-05-14T09:46:48;102053.50;;;20.63;44.36
24013;BME280;12220;50.194;18.948;2023-05-14T09:48:52;102047.42;;;20.69;44.21
24013;BME280;12220;50.194;18.948;2023-05-14T09:50:58;102047.13;;;20.72;43.68
24013;BME280;12220;50.194;18.948;2023-05-14T09:53:03;102051.11;;;20.80;43.03
24013;BME280;12220;50.194;18.948;2023-05-14T09:55:05;102045.10;;;20.84;43.07
24013;BME280;12220;50.194;18.948;2023-05-14T09:57:09;102040.44;;;20.95;43.15
24013;BME280;12220;50.194;18.948;2023-05-14T09:59:10;102036.77;;;21.04;43.15
24013;BME280;12220;50.194;18.948;2023-05-14T10:01:13;102037.95;;;21.11;42.86
24013;BME280;12220;50.194;18.948;2023-05-14T10:03:19;102030.63;;;21.20;42.94
24013;BME280;12220;50.194;18.948;2023-05-14T10:05:22;102028.14;;;21.27;42.52
24013;BME280;12220;50.194;18.948;2023-05-14T10:07:30;102022.57;;;21.27;42.18
24013;BME280;12220;50.194;18.948;2023-05-14T10:09:39;102014.78;;;21.30;42.28
24013;BME280;12220;50.194;18.948;2023-05-14T10:11:52;102017.16;;;21.35;42.24
24013;BME280;12220;50.194;18.948;2023-05-14T10:18:51;102009.10;;;21.51;42.18
24013;BME280;12220;50.194;18.948;2023-05-14T10:21:05;101992.79;;;21.56;41.89
24013;BME280;12220;50.194;18.948;2023-05-14T10:23:12;101995.02;;;21.53;41.40
24013;BME280;12220;50.194;18.948;2023-05-14T10:25:17;101992.22;;;21.53;42.00
24013;BME280;12220;50.194;18.948;2023-05-14T10:27:22;102004.69;;;21.58;42.05
24013;BME280;12220;50.194;18.948;2023-05-14T10:29:41;101994.85;;;21.64;41.86
24013;BME280;12220;50.194;18.948;2023-05-14T10:32:00;101985.28;;;21.67;40.26
24013;BME280;12220;50.194;18.948;2023-05-14T10:36:49;101982.94;;;21.72;39.89
24013;BME280;12220;50.194;18.948;2023-05-14T10:38:56;101984.71;;;21.73;39.95
24013;BME280;12220;50.194;18.948;2023-05-14T10:41:04;101982.33;;;21.78;40.04
24013;BME280;12220;50.194;18.948;2023-05-14T10:43:15;101977.91;;;21.85;40.24
24013;BME280;12220;50.194;18.948;2023-05-14T10:45:17;101972.02;;;21.88;40.19
24013;BME280;12220;50.194;18.948;2023-05-14T10:47:19;101964.24;;;21.92;40.25
24013;BME280;12220;50.194;18.948;2023-05-14T10:49:21;101962.76;;;21.98;40.20
24013;BME280;12220;50.194;18.948;2023-05-14T10:51:28;101968.73;;;22.03;40.31
24013;BME280;12220;50.194;18.948;2023-05-14T10:53:36;101964.92;;;22.04;39.91
24013;BME280;12220;50.194;18.948;2023-05-14T10:55:37;101972.27;;;22.05;39.62
24013;BME280;12220;50.194;18.948;2023-05-14T10:57:45;101970.35;;;22.05;39.19
24013;BME280;12220;50.194;18.948;2023-05-14T10:59:51;101973.45;;;22.02;38.88